createdAt,value
2018-09-16T00:02:08.887Z,25.70
2018-09-16T00:04:37.104Z,25.70
2018-09-16T00:07:05.543Z,25.70
2018-09-16T00:09:33.811Z,25.60
2018-09-16T00:12:02.027Z,25.60
2018-09-16T00:14:30.278Z,25.60
2018-09-16T00:16:58.636Z,25.60
2018-09-16T00:19:26.932Z,25.60
2018-09-16T00:21:55.205Z,25.60
2018-09-16T00:24:24.479Z,25.50
2018-09-16T00:26:52.787Z,25.50
2018-09-16T00:29:21.030Z,25.40
2018-09-16T00:31:54.791Z,25.40
2018-09-16T00:34:23.041Z,25.40
2018-09-16T00:36:51.295Z,25.40
2018-09-16T00:39:19.603Z,25.30
2018-09-16T00:41:47.931Z,25.30
2018-09-16T00:44:16.245Z,25.20
2018-09-16T00:46:51.147Z,25.20
2018-09-16T00:49:19.366Z,25.20
2018-09-16T00:51:47.672Z,25.20
2018-09-16T00:54:15.931Z,25.20
2018-09-16T00:56:44.218Z,25.20
2018-09-16T00:59:12.642Z,25.20
2018-09-16T01:01:40.850Z,25.20
2018-09-16T01:04:09.182Z,25.20
2018-09-16T01:06:38.352Z,25.30
2018-09-16T01:09:12.015Z,25.20
2018-09-16T01:11:40.387Z,25.20
2018-09-16T01:14:09.219Z,25.10
2018-09-16T01:16:38.739Z,25.10
2018-09-16T01:19:07.647Z,25.10
2018-09-16T01:21:36.523Z,25.00
2018-09-16T01:24:05.204Z,25.10
2018-09-16T01:26:33.639Z,25.00
2018-09-16T01:29:01.875Z,25.00
2018-09-16T01:31:30.166Z,24.90
2018-09-16T01:33:58.730Z,24.90
2018-09-16T01:36:27.003Z,24.90
2018-09-16T01:38:56.451Z,24.90
2018-09-16T01:41:24.722Z,24.90
2018-09-16T01:43:52.995Z,24.90
2018-09-16T01:46:21.285Z,24.90
2018-09-16T01:48:49.554Z,24.90
2018-09-16T01:51:17.804Z,24.90
2018-09-16T01:53:46.071Z,24.90
2018-09-16T01:56:14.319Z,24.90
2018-09-16T01:58:42.596Z,24.90
2018-09-16T02:01:11.963Z,24.80
2018-09-16T02:03:40.550Z,24.80
2018-09-16T02:06:08.866Z,24.80
2018-09-16T02:08:37.135Z,24.80
2018-09-16T02:11:05.484Z,24.70
2018-09-16T02:13:33.863Z,24.70
2018-09-16T02:16:02.520Z,24.60
2018-09-16T02:18:30.800Z,24.60
2018-09-16T02:20:59.139Z,24.50
2018-09-16T02:23:27.439Z,24.50
2018-09-16T02:25:55.741Z,24.50
2018-09-16T02:28:24.028Z,24.40
2018-09-16T02:30:52.393Z,24.40
2018-09-16T02:33:20.699Z,24.40
2018-09-16T02:35:49.049Z,24.40
2018-09-16T02:38:17.307Z,24.40
2018-09-16T02:40:45.613Z,24.40
2018-09-16T02:43:13.903Z,24.40
2018-09-16T02:45:42.227Z,24.40
2018-09-16T02:48:10.527Z,24.30
2018-09-16T02:50:38.809Z,24.30
2018-09-16T02:53:07.117Z,24.30
2018-09-16T02:55:35.382Z,24.20
2018-09-16T02:58:03.662Z,24.20
2018-09-16T03:00:32.012Z,24.20
2018-09-16T03:03:00.268Z,24.20
2018-09-16T03:05:34.111Z,24.10
2018-09-16T03:08:02.407Z,24.10
2018-09-16T03:10:30.671Z,24.10
2018-09-16T03:12:58.967Z,24.10
2018-09-16T03:15:27.483Z,24.10
2018-09-16T03:17:55.800Z,24.00
2018-09-16T03:20:24.123Z,24.00
2018-09-16T03:22:52.489Z,23.90
2018-09-16T03:25:20.920Z,23.90
2018-09-16T03:27:49.235Z,23.90
2018-09-16T03:30:17.556Z,23.90
2018-09-16T03:32:45.846Z,23.80
2018-09-16T03:35:14.138Z,23.80
2018-09-16T03:37:42.406Z,23.80
2018-09-16T03:40:10.677Z,23.70
2018-09-16T03:42:38.961Z,23.70
2018-09-16T03:45:07.963Z,23.70
2018-09-16T03:47:36.260Z,23.70
2018-09-16T03:50:04.636Z,23.60
2018-09-16T03:52:34.484Z,23.60
2018-09-16T03:55:02.711Z,23.60
2018-09-16T03:57:32.568Z,23.60
2018-09-16T04:00:00.906Z,23.60
2018-09-16T04:02:29.276Z,23.60
2018-09-16T04:04:57.761Z,23.50
2018-09-16T04:07:26.128Z,23.50
2018-09-16T04:09:54.455Z,23.50
2018-09-16T04:12:22.704Z,23.40
2018-09-16T04:14:51.030Z,23.40
2018-09-16T04:17:19.287Z,23.40
2018-09-16T04:19:47.588Z,23.40
2018-09-16T04:22:15.812Z,23.40
2018-09-16T04:24:44.111Z,23.40
2018-09-16T04:27:12.423Z,23.40
2018-09-16T04:29:40.659Z,23.40
2018-09-16T04:32:09.028Z,23.40
2018-09-16T04:34:37.292Z,23.40
2018-09-16T04:37:05.591Z,23.40
2018-09-16T04:39:33.874Z,23.40
2018-09-16T04:42:02.169Z,23.40
2018-09-16T04:44:30.448Z,23.30
2018-09-16T04:46:58.709Z,23.20
2018-09-16T04:49:26.971Z,23.20
2018-09-16T04:51:55.300Z,23.20
2018-09-16T04:54:23.544Z,23.20
2018-09-16T04:56:51.840Z,23.10
2018-09-16T04:59:20.071Z,23.10
2018-09-16T05:01:48.352Z,23.00
2018-09-16T05:04:16.622Z,23.00
2018-09-16T05:06:44.887Z,23.00
2018-09-16T05:09:13.127Z,23.00
2018-09-16T05:11:41.403Z,23.10
2018-09-16T05:14:09.766Z,23.10
2018-09-16T05:16:38.147Z,23.10
2018-09-16T05:19:06.472Z,23.00
2018-09-16T05:21:34.858Z,23.00
2018-09-16T05:24:03.139Z,23.00
2018-09-16T05:26:31.475Z,23.00
2018-09-16T05:28:59.763Z,23.00
2018-09-16T05:31:28.239Z,23.00
2018-09-16T05:33:56.547Z,23.00
2018-09-16T05:36:24.824Z,23.00
2018-09-16T05:38:53.176Z,23.00
2018-09-16T05:41:21.552Z,23.00
2018-09-16T05:43:49.836Z,23.00
2018-09-16T05:46:18.183Z,22.90
2018-09-16T05:48:46.615Z,22.90
2018-09-16T05:51:14.895Z,22.90
2018-09-16T05:53:43.182Z,22.90
2018-09-16T05:56:11.458Z,23.00
2018-09-16T05:58:39.688Z,22.90
2018-09-16T06:01:07.994Z,22.90
2018-09-16T06:03:36.269Z,23.00
2018-09-16T06:06:04.622Z,23.00
2018-09-16T06:08:32.948Z,23.00
2018-09-16T06:11:01.236Z,23.00
2018-09-16T06:13:29.553Z,23.00
2018-09-16T06:15:57.832Z,23.00
2018-09-16T06:18:26.083Z,23.00
2018-09-16T06:20:54.327Z,22.90
2018-09-16T06:23:22.648Z,22.90
2018-09-16T06:25:50.908Z,22.90
2018-09-16T06:28:19.244Z,22.90
2018-09-16T06:30:47.581Z,23.00
2018-09-16T06:33:15.828Z,22.90
2018-09-16T06:35:44.121Z,23.00
2018-09-16T06:38:12.435Z,23.00
2018-09-16T06:40:40.756Z,23.00
2018-09-16T06:43:09.064Z,23.00
2018-09-16T06:45:37.392Z,23.00
2018-09-16T06:48:05.727Z,23.00
2018-09-16T06:50:34.335Z,23.00
2018-09-16T06:53:02.808Z,23.00
2018-09-16T06:55:31.407Z,23.10
2018-09-16T06:57:59.622Z,23.10
2018-09-16T07:00:27.928Z,23.10
2018-09-16T07:02:56.169Z,23.20
2018-09-16T07:05:24.476Z,23.20
2018-09-16T07:07:52.775Z,23.20
2018-09-16T07:10:21.102Z,23.30
2018-09-16T07:12:49.425Z,23.30
2018-09-16T07:15:17.796Z,23.30
2018-09-16T07:17:46.069Z,23.40
2018-09-16T07:20:14.459Z,23.40
2018-09-16T07:22:42.715Z,23.40
2018-09-16T07:25:10.970Z,23.50
2018-09-16T07:27:39.284Z,23.50
2018-09-16T07:30:07.616Z,23.50
2018-09-16T07:32:37.527Z,23.50
2018-09-16T07:35:06.109Z,23.60
2018-09-16T07:37:36.260Z,23.60
2018-09-16T07:40:04.602Z,23.60
2018-09-16T07:42:34.699Z,23.60
2018-09-16T07:45:03.063Z,23.60
2018-09-16T07:47:31.443Z,23.70
2018-09-16T07:49:59.681Z,23.70
2018-09-16T07:52:27.959Z,23.80
2018-09-16T07:54:56.215Z,23.80
2018-09-16T07:57:24.492Z,23.90
2018-09-16T07:59:52.797Z,24.00
2018-09-16T08:02:21.032Z,24.10
2018-09-16T08:04:49.327Z,24.20
2018-09-16T08:07:17.703Z,24.20
2018-09-16T08:09:46.117Z,24.30
2018-09-16T08:12:14.391Z,24.40
2018-09-16T08:15:01.389Z,24.40
2018-09-16T08:17:29.667Z,24.40
2018-09-16T08:19:57.928Z,24.50
2018-09-16T08:22:26.319Z,24.40
2018-09-16T08:25:01.312Z,24.50
2018-09-16T08:27:29.668Z,24.50
2018-09-16T08:29:57.940Z,24.50
2018-09-16T08:32:26.176Z,24.50
2018-09-16T08:34:54.524Z,24.60
2018-09-16T08:37:22.877Z,24.60
2018-09-16T08:39:51.175Z,24.70
2018-09-16T08:42:19.497Z,24.80
2018-09-16T08:44:47.736Z,24.90
2018-09-16T08:47:16.024Z,24.90
2018-09-16T08:49:44.277Z,25.00
2018-09-16T08:52:12.573Z,25.00
2018-09-16T08:54:40.859Z,25.10
2018-09-16T08:57:09.130Z,25.10
2018-09-16T08:59:37.516Z,25.30
2018-09-16T09:02:06.085Z,25.20
2018-09-16T09:04:34.334Z,25.30
2018-09-16T09:07:02.622Z,25.40
2018-09-16T09:09:30.943Z,25.40
2018-09-16T09:11:59.189Z,25.50
2018-09-16T09:14:39.338Z,25.60
2018-09-16T09:17:07.584Z,25.70
2018-09-16T09:19:35.807Z,25.90
2018-09-16T09:22:04.090Z,26.40
2018-09-16T09:24:32.351Z,26.80
2018-09-16T09:27:00.669Z,27.10
2018-09-16T09:29:28.943Z,27.40
2018-09-16T09:35:38.794Z,27.70
2018-09-16T09:38:07.189Z,27.90
2018-09-16T09:40:35.714Z,28.20
2018-09-16T09:43:04.091Z,28.50
2018-09-16T09:45:32.527Z,29.00
2018-09-16T09:48:00.866Z,29.50
2018-09-16T09:50:29.268Z,29.90
2018-09-16T09:52:57.565Z,29.90
2018-09-16T09:55:25.916Z,30.00
2018-09-16T09:57:54.213Z,30.20
2018-09-16T10:00:28.066Z,30.60
2018-09-16T10:02:56.509Z,31.10
2018-09-16T10:05:24.981Z,31.50
2018-09-16T10:07:53.480Z,31.70
2018-09-16T10:10:22.024Z,31.70
2018-09-16T10:12:50.545Z,31.50
2018-09-16T10:15:42.628Z,31.60
2018-09-16T10:18:11.402Z,31.70
2018-09-16T10:20:39.924Z,31.80
2018-09-16T10:23:08.436Z,31.80
2018-09-16T10:25:37.352Z,31.80
2018-09-16T10:28:05.915Z,31.80
2018-09-16T10:30:34.842Z,32.00
2018-09-16T10:33:03.455Z,32.10
2018-09-16T10:35:32.040Z,32.50
2018-09-16T10:38:00.629Z,33.00
2018-09-16T10:40:29.380Z,33.50
2018-09-16T10:42:58.098Z,34.10
2018-09-16T10:45:26.709Z,34.60
2018-09-16T10:47:55.268Z,34.90
2018-09-16T10:50:23.880Z,35.10
2018-09-16T10:52:52.423Z,35.40
2018-09-16T10:55:20.944Z,35.30
2018-09-16T10:57:49.528Z,35.70
2018-09-16T11:00:18.031Z,36.00
2018-09-16T11:02:46.541Z,36.40
2018-09-16T11:05:15.100Z,36.80
2018-09-16T11:07:43.686Z,37.10
2018-09-16T11:10:12.046Z,37.40
2018-09-16T11:12:40.324Z,37.50
2018-09-16T11:15:51.467Z,37.60
2018-09-16T11:18:19.764Z,37.90
2018-09-16T11:20:48.043Z,38.10
2018-09-16T11:23:16.351Z,38.40
2018-09-16T11:25:44.665Z,38.60
2018-09-16T11:28:12.982Z,38.90
2018-09-16T11:30:41.304Z,39.20
2018-09-16T11:33:09.577Z,39.40
2018-09-16T11:35:38.305Z,39.60
2018-09-16T11:38:06.821Z,39.80
2018-09-16T11:40:35.480Z,39.90
2018-09-16T11:43:03.756Z,40.00
2018-09-16T11:45:32.256Z,40.10
2018-09-16T11:48:00.536Z,40.20
2018-09-16T11:50:28.839Z,40.20
2018-09-16T11:52:57.101Z,40.40
2018-09-16T11:55:25.424Z,40.60
2018-09-16T11:57:53.692Z,40.80
2018-09-16T12:00:22.037Z,40.80
2018-09-16T12:02:50.331Z,40.80
2018-09-16T12:05:18.631Z,40.90
2018-09-16T12:07:46.945Z,41.00
2018-09-16T12:10:15.255Z,41.20
2018-09-16T12:12:43.536Z,41.30
2018-09-16T12:18:31.978Z,41.10
2018-09-16T12:21:00.263Z,41.00
2018-09-16T12:23:28.561Z,40.90
2018-09-16T12:25:56.940Z,40.80
2018-09-16T12:28:25.189Z,40.60
2018-09-16T12:30:53.515Z,40.50
2018-09-16T12:33:21.752Z,40.40
2018-09-16T12:35:50.121Z,40.30
2018-09-16T12:38:19.270Z,40.40
2018-09-16T12:40:47.535Z,40.40
2018-09-16T12:43:15.824Z,40.40
2018-09-16T12:45:44.099Z,40.60
2018-09-16T12:48:12.408Z,40.70
2018-09-16T12:50:40.747Z,41.00
2018-09-16T12:53:09.008Z,41.40
2018-09-16T12:55:37.273Z,41.50
2018-09-16T12:58:05.794Z,41.80
2018-09-16T13:00:34.256Z,42.00
2018-09-16T13:03:02.508Z,42.10
2018-09-16T13:05:30.816Z,42.20
2018-09-16T13:07:59.204Z,42.30
2018-09-16T13:10:27.461Z,42.40
2018-09-16T13:12:55.755Z,42.40
2018-09-16T13:16:14.808Z,42.70
2018-09-16T13:18:43.095Z,42.80
2018-09-16T13:21:11.347Z,42.90
2018-09-16T13:23:39.632Z,42.90
2018-09-16T13:26:08.006Z,43.00
2018-09-16T13:28:36.316Z,43.40
2018-09-16T13:31:04.636Z,43.40
2018-09-16T13:33:32.876Z,43.40
2018-09-16T13:36:01.183Z,43.60
2018-09-16T13:38:29.543Z,43.30
2018-09-16T13:40:57.839Z,43.00
2018-09-16T13:43:26.101Z,42.90
2018-09-16T13:45:54.460Z,42.70
2018-09-16T13:48:22.671Z,42.50
2018-09-16T13:50:51.036Z,42.20
2018-09-16T13:53:19.319Z,41.80
2018-09-16T13:55:47.654Z,41.40
2018-09-16T13:58:15.971Z,40.90
2018-09-16T14:00:44.248Z,40.50
2018-09-16T14:03:12.507Z,40.30
2018-09-16T14:05:40.826Z,40.00
2018-09-16T14:08:09.134Z,39.70
2018-09-16T14:10:37.471Z,39.60
2018-09-16T14:13:05.786Z,39.40
2018-09-16T14:18:54.347Z,39.40
2018-09-16T14:21:22.629Z,39.80
2018-09-16T14:23:50.932Z,39.90
2018-09-16T14:26:19.193Z,39.90
2018-09-16T14:28:47.487Z,40.20
2018-09-16T14:31:15.764Z,40.60
2018-09-16T14:33:44.035Z,40.90
2018-09-16T14:36:12.366Z,40.90
2018-09-16T14:38:40.607Z,41.10
2018-09-16T14:41:08.923Z,40.80
2018-09-16T14:43:37.238Z,40.50
2018-09-16T14:46:05.627Z,40.10
2018-09-16T14:48:33.858Z,40.20
2018-09-16T14:51:02.231Z,40.00
2018-09-16T14:53:30.484Z,39.60
2018-09-16T14:55:58.750Z,39.20
2018-09-16T14:58:27.064Z,38.90
2018-09-16T15:00:55.295Z,38.60
2018-09-16T15:03:23.532Z,38.40
2018-09-16T15:05:51.892Z,38.20
2018-09-16T15:08:20.185Z,37.80
2018-09-16T15:10:48.631Z,37.40
2018-09-16T15:13:17.562Z,37.50
2018-09-16T15:16:37.631Z,38.00
2018-09-16T15:19:06.352Z,38.50
2018-09-16T15:21:34.633Z,39.10
2018-09-16T15:24:02.975Z,39.50
2018-09-16T15:26:31.254Z,39.60
2018-09-16T15:28:59.528Z,39.80
2018-09-16T15:31:27.775Z,40.00
2018-09-16T15:33:56.024Z,39.80
2018-09-16T15:36:24.368Z,39.50
2018-09-16T15:38:52.791Z,39.30
2018-09-16T15:41:21.077Z,39.00
2018-09-16T15:43:49.407Z,38.60
2018-09-16T15:46:17.687Z,38.10
2018-09-16T15:48:46.035Z,37.80
2018-09-16T15:51:14.384Z,37.40
2018-09-16T15:53:42.694Z,37.10
2018-09-16T15:56:10.983Z,36.80
2018-09-16T15:58:39.256Z,36.50
2018-09-16T16:01:07.500Z,36.30
2018-09-16T16:03:35.767Z,36.10
2018-09-16T16:06:04.064Z,35.80
2018-09-16T16:08:32.366Z,35.60
2018-09-16T16:11:00.646Z,35.50
2018-09-16T16:13:29.076Z,35.30
2018-09-16T16:19:18.223Z,35.10
2018-09-16T16:21:46.483Z,34.90
2018-09-16T16:24:14.806Z,34.80
2018-09-16T16:26:43.183Z,34.60
2018-09-16T16:29:11.467Z,34.30
2018-09-16T16:31:39.789Z,34.20
2018-09-16T16:34:08.196Z,34.10
2018-09-16T16:36:36.440Z,34.00
2018-09-16T16:39:06.817Z,33.90
2018-09-16T16:41:35.048Z,33.80
2018-09-16T16:44:03.335Z,33.70
2018-09-16T16:46:31.641Z,33.70
2018-09-16T16:48:59.896Z,33.60
2018-09-16T16:51:28.154Z,33.50
2018-09-16T16:53:56.582Z,33.30
2018-09-16T16:56:24.868Z,33.30
2018-09-16T16:58:53.139Z,33.20
2018-09-16T17:01:21.439Z,33.00
2018-09-16T17:03:49.663Z,32.90
2018-09-16T17:06:17.932Z,32.80
2018-09-16T17:08:46.204Z,32.70
2018-09-16T17:11:14.506Z,32.70
2018-09-16T17:13:42.878Z,32.60
2018-09-16T17:17:03.263Z,32.40
2018-09-16T17:19:31.577Z,32.40
2018-09-16T17:21:59.886Z,32.30
2018-09-16T17:24:28.175Z,32.30
2018-09-16T17:26:56.416Z,32.20
2018-09-16T17:29:25.748Z,32.20
2018-09-16T17:31:54.010Z,32.20
2018-09-16T17:34:22.290Z,32.10
2018-09-16T17:36:50.635Z,32.00
2018-09-16T17:39:18.909Z,32.00
2018-09-16T17:41:47.227Z,31.90
2018-09-16T17:44:16.484Z,31.90
2018-09-16T17:46:48.482Z,31.90
2018-09-16T17:49:16.839Z,31.80
2018-09-16T17:51:45.175Z,31.70
2018-09-16T17:54:13.495Z,31.70
2018-09-16T17:56:41.758Z,31.60
2018-09-16T17:59:10.083Z,31.50
2018-09-16T18:01:38.361Z,31.50
2018-09-16T18:04:06.691Z,31.40
2018-09-16T18:06:34.964Z,31.30
2018-09-16T18:09:04.164Z,31.20
2018-09-16T18:11:32.377Z,31.20
2018-09-16T18:14:04.328Z,31.00
2018-09-16T18:20:00.667Z,30.90
2018-09-16T18:22:50.198Z,30.70
2018-09-16T18:25:35.680Z,30.60
2018-09-16T18:28:03.984Z,30.60
2018-09-16T18:30:32.775Z,30.60
2018-09-16T18:33:01.011Z,30.50
2018-09-16T18:35:46.729Z,30.40
2018-09-16T18:44:10.351Z,30.50
2018-09-16T18:46:38.966Z,30.50
2018-09-16T18:49:26.832Z,30.60
2018-09-16T18:51:55.110Z,30.50
2018-09-16T18:54:23.440Z,30.50
2018-09-16T18:56:51.749Z,30.40
2018-09-16T18:59:20.043Z,30.30
2018-09-16T19:02:08.466Z,30.30
2018-09-16T19:04:36.779Z,30.30
2018-09-16T19:07:04.749Z,30.20
2018-09-16T19:09:44.102Z,30.10
2018-09-16T19:12:26.677Z,30.10
2018-09-16T19:18:13.099Z,30.00
2018-09-16T19:20:41.483Z,29.70
2018-09-16T19:23:09.760Z,29.70
2018-09-16T19:25:38.282Z,29.70
2018-09-16T19:28:06.524Z,29.70
2018-09-16T19:30:34.804Z,29.60
2018-09-16T19:33:03.118Z,29.70
2018-09-16T19:35:31.734Z,29.70
2018-09-16T19:37:59.994Z,29.70
2018-09-16T19:40:28.418Z,29.70
2018-09-16T19:42:56.763Z,29.60
2018-09-16T19:45:25.142Z,29.60
2018-09-16T19:47:53.420Z,29.50
2018-09-16T19:50:21.691Z,29.50
2018-09-16T19:52:49.964Z,29.50
2018-09-16T19:55:18.246Z,29.40
2018-09-16T19:57:46.567Z,29.40
2018-09-16T20:00:14.841Z,29.40
2018-09-16T20:02:43.111Z,29.30
2018-09-16T20:05:11.427Z,29.30
2018-09-16T20:07:40.127Z,29.20
2018-09-16T20:10:08.490Z,29.20
2018-09-16T20:12:38.432Z,29.10
2018-09-16T20:15:44.704Z,29.10
2018-09-16T20:18:13.047Z,29.10
2018-09-16T20:20:41.319Z,29.00
2018-09-16T20:23:09.719Z,29.00
2018-09-16T20:25:55.228Z,29.00
2018-09-16T20:28:23.940Z,29.00
2018-09-16T20:30:52.238Z,28.90
2018-09-16T20:33:20.529Z,28.90
2018-09-16T20:35:48.850Z,28.80
2018-09-16T20:38:17.106Z,28.80
2018-09-16T20:40:45.427Z,28.70
2018-09-16T20:43:13.838Z,28.70
2018-09-16T20:45:42.175Z,28.60
2018-09-16T20:48:10.494Z,28.60
2018-09-16T20:50:38.837Z,28.60
2018-09-16T20:53:07.179Z,28.50
2018-09-16T20:55:35.486Z,28.50
2018-09-16T20:58:03.737Z,28.50
2018-09-16T21:00:32.755Z,28.40
2018-09-16T21:03:31.827Z,28.30
2018-09-16T21:06:00.141Z,28.20
2018-09-16T21:08:29.203Z,28.20
2018-09-16T21:10:57.475Z,28.20
2018-09-16T21:13:25.766Z,28.10
2018-09-16T21:19:16.819Z,28.00
2018-09-16T21:21:45.163Z,27.90
2018-09-16T21:24:13.467Z,28.00
2018-09-16T21:26:41.765Z,27.90
2018-09-16T21:29:10.054Z,27.90
2018-09-16T21:31:38.364Z,27.90
2018-09-16T21:34:06.665Z,27.80
2018-09-16T21:36:34.915Z,27.80
2018-09-16T21:39:04.385Z,27.80
2018-09-16T21:41:32.660Z,27.80
2018-09-16T21:44:00.933Z,27.70
2018-09-16T21:46:29.213Z,27.60
2018-09-16T21:48:57.523Z,27.60
2018-09-16T21:51:25.819Z,27.50
2018-09-16T21:53:54.114Z,27.50
2018-09-16T21:56:22.432Z,27.50
2018-09-16T21:58:50.717Z,27.50
2018-09-16T22:01:18.975Z,27.40
2018-09-16T22:03:47.272Z,27.40
2018-09-16T22:06:15.544Z,27.30
2018-09-16T22:08:43.839Z,27.30
2018-09-16T22:11:12.131Z,27.20
2018-09-16T22:13:40.451Z,27.20
2018-09-16T22:16:08.730Z,27.20
2018-09-16T22:18:37.053Z,27.20
2018-09-16T22:21:05.488Z,27.10
2018-09-16T22:23:33.751Z,27.10
2018-09-16T22:26:02.200Z,27.10
2018-09-16T22:28:30.510Z,27.00
2018-09-16T22:30:58.812Z,26.90
2018-09-16T22:33:27.150Z,26.90
2018-09-16T22:35:55.439Z,26.80
2018-09-16T22:38:23.716Z,26.80
2018-09-16T22:40:52.006Z,26.70
2018-09-16T22:43:20.364Z,26.80
2018-09-16T22:45:48.665Z,26.70
2018-09-16T22:48:16.967Z,26.70
2018-09-16T22:50:45.260Z,26.70
2018-09-16T22:53:13.558Z,26.70
2018-09-16T22:55:41.846Z,26.60
2018-09-16T22:58:10.121Z,26.60
2018-09-16T23:00:38.379Z,26.60
2018-09-16T23:03:06.694Z,26.60
2018-09-16T23:05:34.981Z,26.60
2018-09-16T23:08:03.236Z,26.50
2018-09-16T23:10:31.525Z,26.50
2018-09-16T23:12:59.793Z,26.40
2018-09-16T23:15:28.136Z,26.30
2018-09-16T23:17:56.470Z,26.30
2018-09-16T23:20:24.819Z,26.30
2018-09-16T23:22:53.124Z,26.20
2018-09-16T23:25:21.398Z,26.20
2018-09-16T23:27:49.691Z,26.20
2018-09-16T23:30:17.974Z,26.20
2018-09-16T23:32:46.375Z,26.20
2018-09-16T23:35:14.680Z,26.10
2018-09-16T23:37:43.162Z,26.10
2018-09-16T23:40:11.432Z,26.10
2018-09-16T23:42:39.699Z,26.10
2018-09-16T23:45:08.027Z,26.00
2018-09-16T23:47:37.710Z,26.00
2018-09-16T23:50:06.038Z,25.90
2018-09-16T23:52:34.358Z,25.90
2018-09-16T23:55:02.644Z,25.90
2018-09-16T23:57:30.864Z,25.80
2018-09-16T23:59:59.181Z,25.90
